sensor_id;sensor_type;location;lat;lon;timestamp;pressure;altitude;pressure_sealevel;temperature;humidity
3748;BME280;1889;50.058;8.688;2022-12-29T00:00:19;99510.98;;;12.09;65.78
3748;BME280;1889;50.058;8.688;2022-12-29T00:02:48;99509.67;;;12.22;65.62
3748;BME280;1889;50.058;8.688;2022-12-29T00:05:18;99515.14;;;12.16;65.56
3748;BME280;1889;50.058;8.688;2022-12-29T00:07:47;99505.91;;;12.16;65.50
3748;BME280;1889;50.058;8.688;2022-12-29T00:10:16;99500.08;;;12.20;65.42
3748;BME280;1889;50.058;8.688;2022-12-29T00:12:46;99497.94;;;12.31;65.23
3748;BME280;1889;50.058;8.688;2022-12-29T00:15:33;99497.34;;;12.23;64.81
3748;BME280;1889;50.058;8.688;2022-12-29T00:18:07;99496.77;;;12.27;65.06
3748;BME280;1889;50.058;8.688;2022-12-29T00:20:37;99511.50;;;12.20;65.05
3748;BME280;1889;50.058;8.688;2022-12-29T00:23:25;99501.76;;;12.22;65.17
3748;BME280;1889;50.058;8.688;2022-12-29T00:26:16;99503.98;;;12.21;65.53
3748;BME280;1889;50.058;8.688;2022-12-29T00:29:03;99495.84;;;12.16;66.44
3748;BME280;1889;50.058;8.688;2022-12-29T00:31:51;99500.77;;;12.25;66.64
3748;BME280;1889;50.058;8.688;2022-12-29T00:34:38;99504.71;;;12.13;67.53
3748;BME280;1889;50.058;8.688;2022-12-29T00:37:26;99497.10;;;12.04;68.06
3748;BME280;1889;50.058;8.688;2022-12-29T00:39:57;99510.98;;;12.09;67.89
3748;BME280;1889;50.058;8.688;2022-12-29T00:42:44;99498.52;;;12.01;68.37
3748;BME280;1889;50.058;8.688;2022-12-29T00:45:31;99505.08;;;12.16;67.90
3748;BME280;1889;50.058;8.688;2022-12-29T00:48:00;99515.80;;;12.10;68.64
3748;BME280;1889;50.058;8.688;2022-12-29T00:50:29;99503.67;;;12.17;68.71
3748;BME280;1889;50.058;8.688;2022-12-29T00:52:59;99506.67;;;12.20;68.97
3748;BME280;1889;50.058;8.688;2022-12-29T00:55:28;99498.87;;;12.04;70.11
3748;BME280;1889;50.058;8.688;2022-12-29T00:57:58;99517.43;;;12.01;71.89
3748;BME280;1889;50.058;8.688;2022-12-29T01:00:27;99516.67;;;12.10;72.62
3748;BME280;1889;50.058;8.688;2022-12-29T01:02:56;99524.44;;;12.02;73.96
3748;BME280;1889;50.058;8.688;2022-12-29T01:05:25;99507.76;;;11.88;75.21
3748;BME280;1889;50.058;8.688;2022-12-29T01:07:55;99502.77;;;11.92;75.75
3748;BME280;1889;50.058;8.688;2022-12-29T01:10:24;99502.74;;;12.07;75.14
3748;BME280;1889;50.058;8.688;2022-12-29T01:12:54;99494.75;;;12.08;75.55
3748;BME280;1889;50.058;8.688;2022-12-29T01:15:23;99500.70;;;12.02;76.53
3748;BME280;1889;50.058;8.688;2022-12-29T01:17:53;99500.73;;;12.00;77.01
3748;BME280;1889;50.058;8.688;2022-12-29T01:20:22;99507.55;;;11.94;77.27
3748;BME280;1889;50.058;8.688;2022-12-29T01:22:51;99506.80;;;11.91;77.78
3748;BME280;1889;50.058;8.688;2022-12-29T01:25:21;99504.95;;;11.93;77.84
3748;BME280;1889;50.058;8.688;2022-12-29T01:27:50;99500.26;;;11.89;77.92
3748;BME280;1889;50.058;8.688;2022-12-29T01:30:19;99506.02;;;12.00;77.50
3748;BME280;1889;50.058;8.688;2022-12-29T01:32:49;99487.98;;;11.88;78.18
3748;BME280;1889;50.058;8.688;2022-12-29T01:35:18;99486.04;;;11.93;77.98
3748;BME280;1889;50.058;8.688;2022-12-29T01:37:48;99480.84;;;11.92;78.11
3748;BME280;1889;50.058;8.688;2022-12-29T01:40:17;99464.64;;;12.02;77.62
3748;BME280;1889;50.058;8.688;2022-12-29T01:42:46;99464.81;;;11.98;77.75
3748;BME280;1889;50.058;8.688;2022-12-29T01:45:17;99463.73;;;12.03;77.49
3748;BME280;1889;50.058;8.688;2022-12-29T01:48:00;99470.69;;;12.06;77.32
3748;BME280;1889;50.058;8.688;2022-12-29T01:50:41;99466.77;;;12.04;77.38
3748;BME280;1889;50.058;8.688;2022-12-29T01:53:11;99471.28;;;12.01;77.24
3748;BME280;1889;50.058;8.688;2022-12-29T01:55:43;99484.80;;;11.92;77.84
3748;BME280;1889;50.058;8.688;2022-12-29T01:58:13;99481.39;;;11.88;78.13
3748;BME280;1889;50.058;8.688;2022-12-29T02:00:44;99462.89;;;11.90;77.96
3748;BME280;1889;50.058;8.688;2022-12-29T02:03:14;99469.03;;;11.90;77.99
3748;BME280;1889;50.058;8.688;2022-12-29T02:05:59;99481.63;;;11.94;78.17
3748;BME280;1889;50.058;8.688;2022-12-29T02:08:29;99471.86;;;11.97;77.95
3748;BME280;1889;50.058;8.688;2022-12-29T02:10:59;99458.69;;;12.09;77.46
3748;BME280;1889;50.058;8.688;2022-12-29T02:13:30;99471.09;;;12.07;77.44
3748;BME280;1889;50.058;8.688;2022-12-29T02:21:52;99467.27;;;12.02;77.92
3748;BME280;1889;50.058;8.688;2022-12-29T02:27:23;99464.42;;;12.21;76.27
3748;BME280;1889;50.058;8.688;2022-12-29T02:30:08;99460.97;;;12.19;76.41
3748;BME280;1889;50.058;8.688;2022-12-29T02:33:13;99460.97;;;12.19;76.41
3748;BME280;1889;50.058;8.688;2022-12-29T02:35:47;99468.25;;;12.24;76.23
3748;BME280;1889;50.058;8.688;2022-12-29T02:38:36;99461.83;;;12.20;76.50
3748;BME280;1889;50.058;8.688;2022-12-29T02:47:07;99446.50;;;12.18;75.73
3748;BME280;1889;50.058;8.688;2022-12-29T02:49:51;99420.70;;;12.26;75.75
3748;BME280;1889;50.058;8.688;2022-12-29T02:52:27;99451.77;;;12.18;75.91
3748;BME280;1889;50.058;8.688;2022-12-29T02:54:57;99446.77;;;12.10;76.24
3748;BME280;1889;50.058;8.688;2022-12-29T02:57:32;99446.77;;;12.10;76.24
3748;BME280;1889;50.058;8.688;2022-12-29T03:00:11;99445.22;;;12.05;76.43
3748;BME280;1889;50.058;8.688;2022-12-29T03:02:54;99448.95;;;12.11;76.48
3748;BME280;1889;50.058;8.688;2022-12-29T03:05:42;99437.22;;;12.08;76.75
3748;BME280;1889;50.058;8.688;2022-12-29T03:08:30;99443.41;;;12.18;76.49
3748;BME280;1889;50.058;8.688;2022-12-29T03:11:10;99440.90;;;12.15;76.34
3748;BME280;1889;50.058;8.688;2022-12-29T03:13:51;99438.05;;;12.08;76.59
3748;BME280;1889;50.058;8.688;2022-12-29T03:16:55;99432.71;;;12.23;76.17
3748;BME280;1889;50.058;8.688;2022-12-29T03:19:30;99432.71;;;12.23;76.17
3748;BME280;1889;50.058;8.688;2022-12-29T03:22:02;99439.95;;;12.16;76.19
3748;BME280;1889;50.058;8.688;2022-12-29T03:24:52;99431.39;;;12.23;75.98
3748;BME280;1889;50.058;8.688;2022-12-29T03:27:25;99431.39;;;12.23;75.98
3748;BME280;1889;50.058;8.688;2022-12-29T03:30:02;99419.62;;;12.20;76.00
3748;BME280;1889;50.058;8.688;2022-12-29T03:32:52;99419.62;;;12.20;76.00
3748;BME280;1889;50.058;8.688;2022-12-29T03:35:19;99415.43;;;12.26;75.49
3748;BME280;1889;50.058;8.688;2022-12-29T03:38:16;99415.79;;;12.29;75.43
3748;BME280;1889;50.058;8.688;2022-12-29T03:40:52;99411.16;;;12.10;75.62
3748;BME280;1889;50.058;8.688;2022-12-29T03:43:21;99404.56;;;11.99;75.97
3748;BME280;1889;50.058;8.688;2022-12-29T03:45:51;99404.56;;;11.99;75.97
3748;BME280;1889;50.058;8.688;2022-12-29T03:48:20;99407.66;;;12.10;75.93
3748;BME280;1889;50.058;8.688;2022-12-29T03:50:49;99413.94;;;12.19;75.71
3748;BME280;1889;50.058;8.688;2022-12-29T03:53:21;99413.94;;;12.19;75.71
3748;BME280;1889;50.058;8.688;2022-12-29T03:55:51;99396.38;;;12.18;74.83
3748;BME280;1889;50.058;8.688;2022-12-29T03:58:20;99402.14;;;12.29;74.61
3748;BME280;1889;50.058;8.688;2022-12-29T04:00:49;99396.22;;;12.34;74.13
3748;BME280;1889;50.058;8.688;2022-12-29T04:03:18;99401.41;;;12.37;74.35
3748;BME280;1889;50.058;8.688;2022-12-29T04:05:48;99384.61;;;12.40;73.80
3748;BME280;1889;50.058;8.688;2022-12-29T04:08:17;99393.66;;;12.44;73.35
3748;BME280;1889;50.058;8.688;2022-12-29T04:10:48;99391.88;;;12.45;73.35
3748;BME280;1889;50.058;8.688;2022-12-29T04:13:18;99381.83;;;12.43;73.04
3748;BME280;1889;50.058;8.688;2022-12-29T04:15:47;99373.05;;;12.42;73.08
3748;BME280;1889;50.058;8.688;2022-12-29T04:18:17;99367.38;;;12.53;72.07
3748;BME280;1889;50.058;8.688;2022-12-29T04:20:46;99367.38;;;12.53;72.07
3748;BME280;1889;50.058;8.688;2022-12-29T04:23:34;99370.48;;;12.52;72.26
3748;BME280;1889;50.058;8.688;2022-12-29T04:26:05;99374.48;;;12.51;72.03
3748;BME280;1889;50.058;8.688;2022-12-29T04:28:37;99370.94;;;12.64;71.57
3748;BME280;1889;50.058;8.688;2022-12-29T04:31:07;99385.28;;;12.80;71.08
3748;BME280;1889;50.058;8.688;2022-12-29T04:33:36;99372.48;;;12.69;70.33
3748;BME280;1889;50.058;8.688;2022-12-29T04:36:05;99366.53;;;12.64;70.19
3748;BME280;1889;50.058;8.688;2022-12-29T04:38:35;99378.61;;;12.58;69.89
3748;BME280;1889;50.058;8.688;2022-12-29T04:41:04;99376.68;;;12.63;69.23
3748;BME280;1889;50.058;8.688;2022-12-29T04:43:34;99376.68;;;12.63;69.23
3748;BME280;1889;50.058;8.688;2022-12-29T04:46:03;99380.05;;;12.67;68.87
3748;BME280;1889;50.058;8.688;2022-12-29T04:48:32;99377.45;;;12.65;69.17
3748;BME280;1889;50.058;8.688;2022-12-29T04:51:02;99377.20;;;12.73;68.59
3748;BME280;1889;50.058;8.688;2022-12-29T04:53:31;99372.12;;;12.78;68.46
3748;BME280;1889;50.058;8.688;2022-12-29T04:56:00;99364.36;;;12.85;68.25
3748;BME280;1889;50.058;8.688;2022-12-29T04:58:29;99372.53;;;12.79;67.84
3748;BME280;1889;50.058;8.688;2022-12-29T05:00:59;99372.53;;;12.79;67.84
3748;BME280;1889;50.058;8.688;2022-12-29T05:03:28;99371.53;;;12.82;68.05
3748;BME280;1889;50.058;8.688;2022-12-29T05:05:57;99392.20;;;12.94;68.34
3748;BME280;1889;50.058;8.688;2022-12-29T05:08:27;99387.62;;;12.87;68.56
3748;BME280;1889;50.058;8.688;2022-12-29T05:10:57;99380.31;;;12.94;68.74
3748;BME280;1889;50.058;8.688;2022-12-29T05:13:26;99375.73;;;12.87;69.23
3748;BME280;1889;50.058;8.688;2022-12-29T05:15:55;99375.73;;;12.87;69.23
3748;BME280;1889;50.058;8.688;2022-12-29T05:18:25;99383.31;;;12.85;69.13
3748;BME280;1889;50.058;8.688;2022-12-29T05:20:54;99385.89;;;12.75;69.49
3748;BME280;1889;50.058;8.688;2022-12-29T05:23:23;99399.45;;;12.89;69.31
3748;BME280;1889;50.058;8.688;2022-12-29T05:25:53;99391.13;;;12.88;69.29
3748;BME280;1889;50.058;8.688;2022-12-29T05:28:22;99406.91;;;12.78;69.62
3748;BME280;1889;50.058;8.688;2022-12-29T05:30:51;99397.21;;;12.78;69.81
3748;BME280;1889;50.058;8.688;2022-12-29T05:33:21;99379.08;;;12.81;69.73
3748;BME280;1889;50.058;8.688;2022-12-29T05:35:50;99375.58;;;12.80;69.55
3748;BME280;1889;50.058;8.688;2022-12-29T05:38:20;99358.63;;;12.86;69.46
3748;BME280;1889;50.058;8.688;2022-12-29T05:40:49;99367.76;;;12.89;69.08
3748;BME280;1889;50.058;8.688;2022-12-29T05:43:19;99366.49;;;12.87;69.09
3748;BME280;1889;50.058;8.688;2022-12-29T05:45:52;99355.88;;;12.89;68.79
3748;BME280;1889;50.058;8.688;2022-12-29T05:48:22;99359.34;;;12.89;68.50
3748;BME280;1889;50.058;8.688;2022-12-29T05:50:51;99362.19;;;12.73;68.64
3748;BME280;1889;50.058;8.688;2022-12-29T05:53:21;99362.19;;;12.73;68.64
3748;BME280;1889;50.058;8.688;2022-12-29T05:55:50;99360.04;;;12.94;68.21
3748;BME280;1889;50.058;8.688;2022-12-29T05:58:22;99359.95;;;12.86;68.14
3748;BME280;1889;50.058;8.688;2022-12-29T06:00:52;99354.56;;;12.99;67.37
3748;BME280;1889;50.058;8.688;2022-12-29T06:03:21;99358.13;;;12.98;67.67
3748;BME280;1889;50.058;8.688;2022-12-29T06:05:51;99358.13;;;12.98;67.67
3748;BME280;1889;50.058;8.688;2022-12-29T06:08:20;99353.84;;;13.06;67.36
3748;BME280;1889;50.058;8.688;2022-12-29T06:10:50;99362.84;;;13.02;67.34
3748;BME280;1889;50.058;8.688;2022-12-29T06:13:19;99361.57;;;13.00;67.06
3748;BME280;1889;50.058;8.688;2022-12-29T06:15:49;99361.57;;;13.00;67.06
3748;BME280;1889;50.058;8.688;2022-12-29T06:18:18;99366.09;;;13.08;66.66
3748;BME280;1889;50.058;8.688;2022-12-29T06:20:47;99366.09;;;13.08;66.66
3748;BME280;1889;50.058;8.688;2022-12-29T06:23:18;99367.53;;;13.17;66.37
3748;BME280;1889;50.058;8.688;2022-12-29T06:25:47;99365.64;;;13.30;65.86
3748;BME280;1889;50.058;8.688;2022-12-29T06:28:17;99376.52;;;13.23;65.64
3748;BME280;1889;50.058;8.688;2022-12-29T06:30:46;99356.53;;;13.27;65.32
3748;BME280;1889;50.058;8.688;2022-12-29T06:33:16;99360.81;;;13.30;65.65
3748;BME280;1889;50.058;8.688;2022-12-29T06:35:46;99360.81;;;13.30;65.65
3748;BME280;1889;50.058;8.688;2022-12-29T06:38:15;99357.86;;;13.27;65.33
3748;BME280;1889;50.058;8.688;2022-12-29T06:40:44;99366.84;;;13.33;65.58
3748;BME280;1889;50.058;8.688;2022-12-29T06:43:13;99371.27;;;13.33;65.30
3748;BME280;1889;50.058;8.688;2022-12-29T06:45:43;99351.88;;;13.22;65.32
3748;BME280;1889;50.058;8.688;2022-12-29T06:48:12;99351.88;;;13.22;65.32
3748;BME280;1889;50.058;8.688;2022-12-29T06:50:42;99364.55;;;13.14;65.40
3748;BME280;1889;50.058;8.688;2022-12-29T06:53:11;99374.52;;;13.06;65.84
3748;BME280;1889;50.058;8.688;2022-12-29T06:55:42;99359.44;;;13.21;65.66
3748;BME280;1889;50.058;8.688;2022-12-29T06:58:11;99363.68;;;13.14;65.76
3748;BME280;1889;50.058;8.688;2022-12-29T07:00:40;99351.36;;;13.24;65.28
3748;BME280;1889;50.058;8.688;2022-12-29T07:03:10;99359.49;;;13.20;65.54
3748;BME280;1889;50.058;8.688;2022-12-29T07:05:39;99361.53;;;13.23;65.35
3748;BME280;1889;50.058;8.688;2022-12-29T07:08:08;99354.47;;;13.24;65.20
3748;BME280;1889;50.058;8.688;2022-12-29T07:10:38;99344.06;;;13.41;65.09
3748;BME280;1889;50.058;8.688;2022-12-29T07:13:07;99355.29;;;13.46;64.54
3748;BME280;1889;50.058;8.688;2022-12-29T07:15:37;99352.22;;;13.25;65.24
3748;BME280;1889;50.058;8.688;2022-12-29T07:18:06;99351.25;;;13.27;65.42
3748;BME280;1889;50.058;8.688;2022-12-29T07:20:36;99343.23;;;13.19;65.30
3748;BME280;1889;50.058;8.688;2022-12-29T07:23:05;99352.42;;;13.30;64.94
3748;BME280;1889;50.058;8.688;2022-12-29T07:25:34;99347.22;;;13.39;65.08
3748;BME280;1889;50.058;8.688;2022-12-29T07:28:04;99357.20;;;13.32;64.43
3748;BME280;1889;50.058;8.688;2022-12-29T07:30:35;99350.64;;;13.31;64.88
3748;BME280;1889;50.058;8.688;2022-12-29T07:33:04;99349.41;;;13.29;65.60
3748;BME280;1889;50.058;8.688;2022-12-29T07:35:34;99360.81;;;13.30;65.44
3748;BME280;1889;50.058;8.688;2022-12-29T07:38:03;99359.13;;;13.29;65.44
3748;BME280;1889;50.058;8.688;2022-12-29T07:40:33;99356.17;;;13.03;66.00
3748;BME280;1889;50.058;8.688;2022-12-29T07:43:02;99353.64;;;13.00;66.09
3748;BME280;1889;50.058;8.688;2022-12-29T07:45:32;99353.64;;;13.00;66.09
3748;BME280;1889;50.058;8.688;2022-12-29T07:48:01;99363.09;;;13.06;65.44
3748;BME280;1889;50.058;8.688;2022-12-29T07:50:30;99376.61;;;13.21;65.02
3748;BME280;1889;50.058;8.688;2022-12-29T07:53:00;99347.84;;;13.02;65.40
3748;BME280;1889;50.058;8.688;2022-12-29T07:55:29;99353.60;;;13.13;65.16
3748;BME280;1889;50.058;8.688;2022-12-29T07:57:58;99372.56;;;13.23;64.91
3748;BME280;1889;50.058;8.688;2022-12-29T08:00:28;99361.27;;;13.19;64.94
3748;BME280;1889;50.058;8.688;2022-12-29T08:02:58;99358.39;;;13.14;64.95
3748;BME280;1889;50.058;8.688;2022-12-29T08:05:27;99355.06;;;13.30;65.07
3748;BME280;1889;50.058;8.688;2022-12-29T08:07:56;99371.93;;;13.28;64.87
3748;BME280;1889;50.058;8.688;2022-12-29T08:10:26;99368.14;;;13.23;65.39
3748;BME280;1889;50.058;8.688;2022-12-29T08:12:55;99369.14;;;13.31;65.58
3748;BME280;1889;50.058;8.688;2022-12-29T08:15:24;99382.13;;;13.37;65.46
3748;BME280;1889;50.058;8.688;2022-12-29T08:17:54;99387.33;;;13.28;66.24
3748;BME280;1889;50.058;8.688;2022-12-29T08:20:23;99378.38;;;13.09;67.51
3748;BME280;1889;50.058;8.688;2022-12-29T08:22:52;99375.66;;;13.22;67.08
3748;BME280;1889;50.058;8.688;2022-12-29T08:25:22;99391.92;;;13.23;66.83
3748;BME280;1889;50.058;8.688;2022-12-29T08:27:51;99397.75;;;13.21;66.55
3748;BME280;1889;50.058;8.688;2022-12-29T08:30:20;99397.20;;;13.13;66.19
3748;BME280;1889;50.058;8.688;2022-12-29T08:32:50;99406.87;;;13.13;66.66
3748;BME280;1889;50.058;8.688;2022-12-29T08:35:19;99404.05;;;13.29;65.65
3748;BME280;1889;50.058;8.688;2022-12-29T08:37:48;99406.34;;;13.26;65.81
3748;BME280;1889;50.058;8.688;2022-12-29T08:40:18;99399.63;;;13.29;65.28
3748;BME280;1889;50.058;8.688;2022-12-29T08:42:47;99412.44;;;13.28;65.27
3748;BME280;1889;50.058;8.688;2022-12-29T08:45:16;99415.63;;;13.36;65.02
3748;BME280;1889;50.058;8.688;2022-12-29T08:47:46;99419.09;;;13.27;64.95
3748;BME280;1889;50.058;8.688;2022-12-29T08:50:15;99415.30;;;13.22;64.72
3748;BME280;1889;50.058;8.688;2022-12-29T08:52:44;99411.23;;;13.14;65.29
3748;BME280;1889;50.058;8.688;2022-12-29T08:55:14;99413.96;;;13.34;64.77
3748;BME280;1889;50.058;8.688;2022-12-29T08:57:43;99410.86;;;13.34;64.57
3748;BME280;1889;50.058;8.688;2022-12-29T09:00:13;99410.25;;;13.38;65.42
3748;BME280;1889;50.058;8.688;2022-12-29T09:02:43;99416.63;;;13.54;65.62
3748;BME280;1889;50.058;8.688;2022-12-29T09:05:12;99416.06;;;13.58;65.74
3748;BME280;1889;50.058;8.688;2022-12-29T09:07:42;99423.07;;;13.15;68.11
3748;BME280;1889;50.058;8.688;2022-12-29T09:10:11;99423.17;;;13.24;68.37
3748;BME280;1889;50.058;8.688;2022-12-29T09:12:40;99421.34;;;13.26;68.21
3748;BME280;1889;50.058;8.688;2022-12-29T09:15:10;99421.75;;;13.15;68.45
3748;BME280;1889;50.058;8.688;2022-12-29T09:17:40;99436.52;;;13.21;68.58
3748;BME280;1889;50.058;8.688;2022-12-29T09:20:13;99444.20;;;13.15;68.51
3748;BME280;1889;50.058;8.688;2022-12-29T09:22:43;99462.29;;;12.91;74.01
3748;BME280;1889;50.058;8.688;2022-12-29T09:25:13;99464.38;;;12.71;75.94
3748;BME280;1889;50.058;8.688;2022-12-29T09:27:42;99455.98;;;12.48;77.56
3748;BME280;1889;50.058;8.688;2022-12-29T09:30:12;99473.47;;;12.26;80.92
3748;BME280;1889;50.058;8.688;2022-12-29T09:32:42;99482.52;;;12.19;81.82
3748;BME280;1889;50.058;8.688;2022-12-29T09:35:13;99481.52;;;12.23;82.17
3748;BME280;1889;50.058;8.688;2022-12-29T09:37:43;99493.41;;;11.97;84.04
3748;BME280;1889;50.058;8.688;2022-12-29T09:40:27;99488.59;;;11.96;84.01
3748;BME280;1889;50.058;8.688;2022-12-29T09:46:18;99487.11;;;12.14;83.33
3748;BME280;1889;50.058;8.688;2022-12-29T09:48:49;99492.00;;;12.00;84.50
3748;BME280;1889;50.058;8.688;2022-12-29T09:51:21;99504.06;;;12.07;84.42
3748;BME280;1889;50.058;8.688;2022-12-29T09:53:57;99513.59;;;11.98;85.65
3748;BME280;1889;50.058;8.688;2022-12-29T09:56:25;99506.78;;;11.77;86.89
3748;BME280;1889;50.058;8.688;2022-12-29T09:59:02;99521.16;;;11.53;89.92
3748;BME280;1889;50.058;8.688;2022-12-29T10:04:22;99529.03;;;11.54;91.94
3748;BME280;1889;50.058;8.688;2022-12-29T10:07:03;99534.34;;;11.25;94.27
3748;BME280;1889;50.058;8.688;2022-12-29T10:09:39;99537.69;;;11.00;96.29
3748;BME280;1889;50.058;8.688;2022-12-29T10:15:13;99558.13;;;11.07;98.57
3748;BME280;1889;50.058;8.688;2022-12-29T10:23:33;99531.66;;;10.81;99.30
3748;BME280;1889;50.058;8.688;2022-12-29T10:25:58;99537.13;;;10.89;99.81
3748;BME280;1889;50.058;8.688;2022-12-29T10:31:11;99523.20;;;10.86;100.00
3748;BME280;1889;50.058;8.688;2022-12-29T10:33:41;99532.34;;;10.73;99.93
3748;BME280;1889;50.058;8.688;2022-12-29T10:36:19;99531.47;;;10.72;99.78
3748;BME280;1889;50.058;8.688;2022-12-29T10:38:48;99539.11;;;10.81;99.39
3748;BME280;1889;50.058;8.688;2022-12-29T10:41:32;99530.56;;;10.73;98.62
3748;BME280;1889;50.058;8.688;2022-12-29T10:43:56;99540.12;;;10.77;98.76
3748;BME280;1889;50.058;8.688;2022-12-29T10:46:28;99545.67;;;10.97;98.80
3748;BME280;1889;50.058;8.688;2022-12-29T10:48:58;99549.88;;;11.03;98.74
3748;BME280;1889;50.058;8.688;2022-12-29T10:51:37;99541.11;;;10.88;98.67
3748;BME280;1889;50.058;8.688;2022-12-29T10:57:01;99539.11;;;10.81;99.44
3748;BME280;1889;50.058;8.688;2022-12-29T10:59:33;99539.80;;;10.88;99.34
3748;BME280;1889;50.058;8.688;2022-12-29T11:04:57;99541.87;;;11.07;98.23
3748;BME280;1889;50.058;8.688;2022-12-29T11:07:42;99536.56;;;11.09;97.33
3748;BME280;1889;50.058;8.688;2022-12-29T11:12:58;99541.55;;;11.33;96.21
3748;BME280;1889;50.058;8.688;2022-12-29T11:15:48;99540.71;;;11.45;95.97
3748;BME280;1889;50.058;8.688;2022-12-29T11:18:24;99528.60;;;11.40;95.54
3748;BME280;1889;50.058;8.688;2022-12-29T11:20:56;99529.59;;;11.51;95.40
3748;BME280;1889;50.058;8.688;2022-12-29T11:26:22;99532.00;;;11.71;95.04
3748;BME280;1889;50.058;8.688;2022-12-29T11:31:46;99550.45;;;11.86;94.00
3748;BME280;1889;50.058;8.688;2022-12-29T11:37:35;99553.65;;;11.96;93.54
3748;BME280;1889;50.058;8.688;2022-12-29T11:39:51;99545.44;;;12.05;93.51
3748;BME280;1889;50.058;8.688;2022-12-29T11:42:24;99540.42;;;12.23;92.40
3748;BME280;1889;50.058;8.688;2022-12-29T11:44:53;99540.06;;;12.21;90.82
3748;BME280;1889;50.058;8.688;2022-12-29T11:47:28;99536.48;;;12.35;91.05
3748;BME280;1889;50.058;8.688;2022-12-29T11:50:04;99529.58;;;12.44;90.77
3748;BME280;1889;50.058;8.688;2022-12-29T11:52:32;99528.25;;;12.44;88.88
3748;BME280;1889;50.058;8.688;2022-12-29T11:55:05;99534.31;;;12.59;88.38
3748;BME280;1889;50.058;8.688;2022-12-29T11:57:36;99528.94;;;12.49;86.34
3748;BME280;1889;50.058;8.688;2022-12-29T12:00:20;99524.06;;;12.39;84.64
3748;BME280;1889;50.058;8.688;2022-12-29T12:02:56;99515.88;;;12.46;84.78
3748;BME280;1889;50.058;8.688;2022-12-29T12:08:34;99504.45;;;12.57;83.84
3748;BME280;1889;50.058;8.688;2022-12-29T12:11:23;99513.09;;;12.63;84.19
3748;BME280;1889;50.058;8.688;2022-12-29T12:16:27;99513.39;;;12.90;83.83
3748;BME280;1889;50.058;8.688;2022-12-29T12:19:00;99508.45;;;12.69;81.29
3748;BME280;1889;50.058;8.688;2022-12-29T12:21:39;99517.63;;;12.82;81.73
3748;BME280;1889;50.058;8.688;2022-12-29T12:24:47;99522.28;;;12.76;80.25
3748;BME280;1889;50.058;8.688;2022-12-29T12:27:38;99518.06;;;12.95;80.43
3748;BME280;1889;50.058;8.688;2022-12-29T12:30:22;99516.33;;;12.94;79.78
3748;BME280;1889;50.058;8.688;2022-12-29T12:32:55;99522.30;;;12.99;79.00
3748;BME280;1889;50.058;8.688;2022-12-29T12:41:09;99518.11;;;12.93;78.03
3748;BME280;1889;50.058;8.688;2022-12-29T12:43:50;99507.02;;;13.07;78.85
3748;BME280;1889;50.058;8.688;2022-12-29T12:49:35;99505.09;;;12.89;78.44
3748;BME280;1889;50.058;8.688;2022-12-29T12:52:16;99507.66;;;13.02;78.28
3748;BME280;1889;50.058;8.688;2022-12-29T13:00:42;99523.93;;;12.67;78.58
3748;BME280;1889;50.058;8.688;2022-12-29T13:03:13;99518.50;;;12.71;78.47
3748;BME280;1889;50.058;8.688;2022-12-29T13:08:31;99507.83;;;12.86;78.18
3748;BME280;1889;50.058;8.688;2022-12-29T13:11:02;99514.20;;;12.92;78.72
3748;BME280;1889;50.058;8.688;2022-12-29T13:14:01;99498.81;;;12.91;77.82
3748;BME280;1889;50.058;8.688;2022-12-29T13:19:06;99501.12;;;13.12;77.67
3748;BME280;1889;50.058;8.688;2022-12-29T13:27:09;99502.84;;;13.02;76.89
3748;BME280;1889;50.058;8.688;2022-12-29T13:29:34;99500.01;;;13.06;77.01
3748;BME280;1889;50.058;8.688;2022-12-29T13:32:20;99494.01;;;13.14;77.00
3748;BME280;1889;50.058;8.688;2022-12-29T13:37:50;99497.76;;;13.20;75.48
3748;BME280;1889;50.058;8.688;2022-12-29T13:40:18;99490.84;;;13.05;75.27
3748;BME280;1889;50.058;8.688;2022-12-29T13:42:49;99506.20;;;12.82;74.89
3748;BME280;1889;50.058;8.688;2022-12-29T13:45:21;99505.65;;;12.85;75.46
3748;BME280;1889;50.058;8.688;2022-12-29T13:48:03;99508.72;;;12.73;74.28
3748;BME280;1889;50.058;8.688;2022-12-29T13:50:35;99517.76;;;12.91;74.47
3748;BME280;1889;50.058;8.688;2022-12-29T13:53:23;99516.21;;;12.85;74.29
3748;BME280;1889;50.058;8.688;2022-12-29T13:56:22;99511.69;;;12.89;74.07
3748;BME280;1889;50.058;8.688;2022-12-29T14:04:17;99508.58;;;13.01;74.14
3748;BME280;1889;50.058;8.688;2022-12-29T14:06:47;99508.00;;;12.93;74.01
3748;BME280;1889;50.058;8.688;2022-12-29T14:09:51;99513.57;;;13.09;74.15
3748;BME280;1889;50.058;8.688;2022-12-29T14:12:39;99507.73;;;13.12;73.47
3748;BME280;1889;50.058;8.688;2022-12-29T14:17:42;99505.42;;;13.03;73.19
3748;BME280;1889;50.058;8.688;2022-12-29T14:20:22;99506.70;;;13.16;72.46
3748;BME280;1889;50.058;8.688;2022-12-29T14:25:57;99528.37;;;12.89;71.00
3748;BME280;1889;50.058;8.688;2022-12-29T14:28:29;99526.32;;;12.86;71.50
3748;BME280;1889;50.058;8.688;2022-12-29T14:31:32;99536.98;;;12.83;71.63
3748;BME280;1889;50.058;8.688;2022-12-29T14:33:33;99542.59;;;12.74;71.21
3748;BME280;1889;50.058;8.688;2022-12-29T14:36:33;99545.81;;;12.70;71.63
3748;BME280;1889;50.058;8.688;2022-12-29T14:38:53;99539.95;;;12.74;70.97
3748;BME280;1889;50.058;8.688;2022-12-29T14:41:29;99552.55;;;12.79;71.17
3748;BME280;1889;50.058;8.688;2022-12-29T14:49:31;99567.33;;;13.08;69.76
3748;BME280;1889;50.058;8.688;2022-12-29T14:52:17;99564.56;;;12.99;69.98
3748;BME280;1889;50.058;8.688;2022-12-29T14:54:45;99568.75;;;12.93;70.08
3748;BME280;1889;50.058;8.688;2022-12-29T14:57:39;99559.08;;;13.05;70.16
3748;BME280;1889;50.058;8.688;2022-12-29T15:02:46;99562.51;;;12.95;69.73
3748;BME280;1889;50.058;8.688;2022-12-29T15:05:34;99556.00;;;12.92;69.26
3748;BME280;1889;50.058;8.688;2022-12-29T15:08:03;99544.23;;;13.01;69.78
3748;BME280;1889;50.058;8.688;2022-12-29T15:10:57;99545.39;;;12.94;69.02
3748;BME280;1889;50.058;8.688;2022-12-29T15:13:25;99553.64;;;12.85;69.49
3748;BME280;1889;50.058;8.688;2022-12-29T15:15:54;99556.11;;;12.78;69.15
3748;BME280;1889;50.058;8.688;2022-12-29T15:18:26;99556.97;;;12.90;69.02
3748;BME280;1889;50.058;8.688;2022-12-29T15:21:02;99560.30;;;12.72;68.14
3748;BME280;1889;50.058;8.688;2022-12-29T15:23:34;99561.98;;;12.61;68.71
3748;BME280;1889;50.058;8.688;2022-12-29T15:26:06;99569.54;;;12.58;68.95
3748;BME280;1889;50.058;8.688;2022-12-29T15:28:42;99559.52;;;12.56;68.03
3748;BME280;1889;50.058;8.688;2022-12-29T15:31:20;99563.64;;;12.39;67.73
3748;BME280;1889;50.058;8.688;2022-12-29T15:33:53;99564.41;;;12.29;68.02
3748;BME280;1889;50.058;8.688;2022-12-29T15:36:28;99555.17;;;12.29;68.30